createdAt,value
2022-08-29T00:01:12.785Z,5.43
2022-08-29T00:03:40.964Z,5.60
2022-08-29T00:06:09.264Z,5.60
2022-08-29T00:08:36.302Z,5.63
2022-08-29T00:11:03.435Z,5.50
2022-08-29T00:13:30.399Z,6.05
2022-08-29T00:15:57.384Z,4.88
2022-08-29T00:18:24.483Z,5.15
2022-08-29T00:20:51.551Z,5.50
2022-08-29T00:23:19.014Z,4.90
2022-08-29T00:25:46.261Z,5.95
2022-08-29T00:28:13.738Z,4.95
2022-08-29T00:30:41.658Z,5.47
2022-08-29T00:33:09.475Z,5.03
2022-08-29T00:35:39.024Z,5.32
2022-08-29T00:38:09.858Z,5.45
2022-08-29T00:40:50.352Z,5.10
2022-08-29T00:43:21.620Z,5.10
2022-08-29T00:46:07.438Z,5.50
2022-08-29T00:48:36.390Z,5.03
2022-08-29T00:51:07.950Z,5.47
2022-08-29T00:53:39.738Z,5.30
2022-08-29T00:56:09.838Z,5.35
2022-08-29T00:58:42.610Z,5.07
2022-08-29T01:01:10.845Z,5.68
2022-08-29T01:03:42.704Z,5.28
2022-08-29T01:06:13.624Z,4.90
2022-08-29T01:08:41.161Z,5.47
2022-08-29T01:11:26.944Z,5.35
2022-08-29T01:13:55.006Z,4.90
2022-08-29T01:16:24.315Z,5.32
2022-08-29T01:18:56.585Z,4.95
2022-08-29T01:21:34.489Z,5.60
2022-08-29T01:24:10.420Z,5.32
2022-08-29T01:26:37.750Z,5.15
2022-08-29T01:29:04.971Z,5.20
2022-08-29T01:31:57.215Z,4.82
2022-08-29T01:34:27.727Z,4.70
2022-08-29T01:39:26.661Z,4.78
2022-08-29T01:41:54.833Z,5.53
2022-08-29T01:44:25.509Z,5.50
2022-08-29T01:46:59.100Z,5.68
2022-08-29T01:49:28.690Z,5.13
2022-08-29T01:51:55.630Z,4.78
2022-08-29T01:54:22.799Z,5.22
2022-08-29T01:56:52.183Z,4.80
2022-08-29T01:59:23.666Z,4.68
2022-08-29T02:02:01.128Z,4.45
2022-08-29T02:04:28.238Z,4.78
2022-08-29T02:06:56.264Z,4.70
2022-08-29T02:09:24.818Z,5.43
2022-08-29T02:11:52.629Z,5.00
2022-08-29T02:14:19.959Z,5.35
2022-08-29T02:16:48.304Z,4.55
2022-08-29T02:19:16.100Z,5.18
2022-08-29T02:21:44.488Z,4.90
2022-08-29T02:24:25.000Z,5.75
2022-08-29T02:26:54.116Z,4.88
2022-08-29T02:29:21.162Z,5.40
2022-08-29T02:31:48.497Z,5.00
2022-08-29T02:34:16.625Z,4.63
2022-08-29T02:36:44.085Z,4.85
2022-08-29T02:39:12.435Z,5.70
2022-08-29T02:41:39.538Z,4.50
2022-08-29T02:44:09.727Z,5.25
2022-08-29T02:46:37.314Z,4.80
2022-08-29T02:49:05.048Z,5.07
2022-08-29T02:51:33.263Z,5.07
2022-08-29T02:54:01.366Z,5.13
2022-08-29T02:56:28.748Z,5.47
2022-08-29T02:58:56.052Z,4.80
2022-08-29T03:01:24.247Z,4.95
2022-08-29T03:03:52.596Z,5.45
2022-08-29T03:06:20.786Z,5.22
2022-08-29T03:08:47.723Z,5.35
2022-08-29T03:11:16.059Z,5.70
2022-08-29T03:13:44.714Z,6.03
2022-08-29T03:16:11.955Z,6.63
2022-08-29T03:18:40.012Z,6.38
2022-08-29T03:21:15.680Z,6.75
2022-08-29T03:23:42.776Z,6.93
2022-08-29T03:26:09.799Z,7.32
2022-08-29T03:28:36.841Z,7.07
2022-08-29T03:31:03.980Z,6.68
2022-08-29T03:33:31.018Z,6.53
2022-08-29T03:35:58.282Z,7.07
2022-08-29T03:38:25.520Z,6.38
2022-08-29T03:40:53.441Z,6.53
2022-08-29T03:43:25.119Z,6.53
2022-08-29T03:45:52.716Z,6.80
2022-08-29T03:48:19.629Z,6.65
2022-08-29T03:50:46.619Z,5.93
2022-08-29T03:53:13.830Z,6.38
2022-08-29T03:55:40.970Z,6.10
2022-08-29T03:58:08.230Z,6.45
2022-08-29T04:00:35.493Z,7.10
2022-08-29T04:03:02.594Z,6.50
2022-08-29T04:05:30.112Z,6.50
2022-08-29T04:07:59.210Z,6.55
2022-08-29T04:10:31.774Z,7.03
2022-08-29T04:12:59.556Z,6.82
2022-08-29T04:15:28.125Z,7.95
2022-08-29T04:17:58.460Z,7.18
2022-08-29T04:20:28.883Z,7.40
2022-08-29T04:22:57.438Z,7.72
2022-08-29T04:25:27.191Z,7.05
2022-08-29T04:27:55.304Z,7.22
2022-08-29T04:30:25.183Z,8.02
2022-08-29T04:35:19.746Z,7.30
2022-08-29T04:37:47.127Z,7.55
2022-08-29T04:40:16.760Z,8.02
2022-08-29T04:42:44.474Z,6.93
2022-08-29T04:45:13.605Z,7.03
2022-08-29T04:47:42.544Z,7.80
2022-08-29T04:50:12.912Z,7.67
2022-08-29T04:52:40.825Z,7.10
2022-08-29T04:55:08.551Z,8.13
2022-08-29T04:57:36.593Z,8.10
2022-08-29T05:00:06.397Z,7.85
2022-08-29T05:05:00.358Z,8.13
2022-08-29T05:07:27.449Z,8.63
2022-08-29T05:10:01.064Z,9.00
2022-08-29T05:12:30.060Z,8.18
2022-08-29T05:14:57.937Z,8.10
2022-08-29T05:17:26.169Z,9.30
2022-08-29T05:19:53.458Z,9.20
2022-08-29T05:22:21.378Z,8.40
2022-08-29T05:24:49.733Z,8.13
2022-08-29T05:27:20.032Z,8.95
2022-08-29T05:29:49.108Z,9.50
2022-08-29T05:32:17.586Z,10.65
2022-08-29T05:34:45.964Z,9.60
2022-08-29T05:37:15.985Z,9.95
2022-08-29T05:39:43.239Z,9.30
2022-08-29T05:42:11.906Z,9.82
2022-08-29T05:44:39.539Z,9.63
2022-08-29T05:47:10.192Z,10.07
2022-08-29T05:49:39.156Z,10.07
2022-08-29T05:52:07.257Z,9.80
2022-08-29T05:54:37.032Z,9.43
2022-08-29T05:57:05.031Z,8.82
2022-08-29T05:59:32.065Z,9.82
2022-08-29T06:01:59.133Z,9.57
2022-08-29T06:04:26.192Z,8.68
2022-08-29T06:06:53.212Z,10.10
2022-08-29T06:09:20.218Z,9.82
2022-08-29T06:11:50.213Z,11.38
2022-08-29T06:14:17.745Z,10.00
2022-08-29T06:16:45.107Z,11.25
2022-08-29T06:19:12.922Z,10.85
2022-08-29T06:21:39.985Z,10.55
2022-08-29T06:24:07.479Z,11.52
2022-08-29T06:26:34.823Z,11.35
2022-08-29T06:29:05.530Z,11.35
2022-08-29T06:31:32.677Z,11.55
2022-08-29T06:34:01.691Z,12.07
2022-08-29T06:36:29.856Z,11.57
2022-08-29T06:38:58.325Z,11.55
2022-08-29T06:41:25.587Z,11.65
2022-08-29T06:43:54.651Z,12.00
2022-08-29T06:46:28.764Z,13.57
2022-08-29T06:48:57.587Z,12.25
2022-08-29T06:51:25.071Z,11.98
2022-08-29T06:53:52.338Z,11.85
2022-08-29T06:56:20.491Z,14.07
2022-08-29T06:58:47.493Z,13.60
2022-08-29T07:01:17.003Z,13.30
2022-08-29T07:03:44.408Z,13.18
2022-08-29T07:06:11.663Z,12.55
2022-08-29T07:08:46.649Z,13.68
2022-08-29T07:11:22.680Z,12.70
2022-08-29T07:13:49.654Z,13.02
2022-08-29T07:16:18.835Z,12.38
2022-08-29T07:18:47.306Z,13.18
2022-08-29T07:21:20.645Z,12.95
2022-08-29T07:23:49.349Z,13.02
2022-08-29T07:26:21.504Z,13.65
2022-08-29T07:28:50.478Z,13.38
2022-08-29T07:31:18.697Z,12.98
2022-08-29T07:33:46.107Z,13.05
2022-08-29T07:36:13.209Z,14.00
2022-08-29T07:38:40.327Z,13.20
2022-08-29T07:41:10.779Z,13.32
2022-08-29T07:43:37.834Z,13.38
2022-08-29T07:46:09.347Z,14.45
2022-08-29T07:48:37.010Z,12.52
2022-08-29T07:51:10.959Z,13.85
2022-08-29T07:53:38.967Z,13.82
2022-08-29T07:56:08.375Z,12.88
2022-08-29T07:58:36.337Z,13.73
2022-08-29T08:01:04.230Z,13.70
2022-08-29T08:03:32.694Z,13.40
2022-08-29T08:05:59.842Z,13.63
2022-08-29T08:08:31.497Z,12.93
2022-08-29T08:10:58.511Z,13.57
2022-08-29T08:13:25.482Z,12.90
2022-08-29T08:15:52.446Z,11.77
2022-08-29T08:18:19.420Z,13.07
2022-08-29T08:20:48.504Z,12.52
2022-08-29T08:23:17.074Z,12.45
2022-08-29T08:25:44.631Z,12.95
2022-08-29T08:28:15.191Z,12.90
2022-08-29T08:30:42.428Z,11.90
2022-08-29T08:33:10.005Z,11.73
2022-08-29T08:35:41.878Z,11.52
2022-08-29T08:38:09.466Z,11.18
2022-08-29T08:40:43.805Z,11.52
2022-08-29T08:43:20.652Z,11.75
2022-08-29T08:45:55.498Z,11.60
2022-08-29T08:48:26.132Z,10.40
2022-08-29T08:51:25.431Z,9.75
2022-08-29T08:53:56.556Z,10.13
2022-08-29T08:56:35.726Z,9.65
2022-08-29T08:59:05.472Z,11.93
2022-08-29T09:04:30.805Z,10.18
2022-08-29T09:07:31.559Z,7.78
2022-08-29T09:10:34.089Z,9.20
2022-08-29T09:13:21.774Z,9.98
2022-08-29T09:15:53.609Z,10.35
2022-08-29T09:18:40.467Z,9.90
2022-08-29T09:21:37.112Z,8.85
2022-08-29T09:24:00.894Z,8.88
2022-08-29T09:26:27.846Z,8.50
2022-08-29T09:28:55.631Z,9.57
2022-08-29T09:31:34.405Z,8.02
2022-08-29T09:34:05.165Z,7.37
2022-08-29T09:36:50.785Z,7.53
2022-08-29T09:39:33.368Z,8.10
2022-08-29T09:42:19.525Z,6.57
2022-08-29T09:44:59.063Z,6.68
2022-08-29T09:47:29.357Z,6.10
2022-08-29T09:50:10.985Z,5.88
2022-08-29T09:52:50.121Z,6.15
2022-08-29T09:55:20.615Z,5.82
2022-08-29T09:58:16.857Z,5.72
2022-08-29T10:01:07.434Z,6.30
2022-08-29T10:03:39.684Z,5.40
2022-08-29T10:06:24.008Z,5.45
2022-08-29T10:09:06.006Z,5.50
2022-08-29T10:12:03.715Z,5.88
2022-08-29T10:14:51.603Z,5.63
2022-08-29T10:17:47.423Z,5.50
2022-08-29T10:20:14.788Z,5.90
2022-08-29T10:22:46.932Z,6.07
2022-08-29T10:25:34.782Z,6.35
2022-08-29T10:28:07.020Z,6.30
2022-08-29T10:30:43.951Z,5.00
2022-08-29T10:33:23.051Z,4.93
2022-08-29T10:36:08.100Z,5.53
2022-08-29T10:38:54.349Z,5.07
2022-08-29T10:41:50.523Z,4.97
2022-08-29T10:45:01.952Z,4.80
2022-08-29T10:47:52.303Z,6.05
2022-08-29T10:50:45.725Z,5.32
2022-08-29T10:53:20.334Z,5.60
2022-08-29T10:56:04.406Z,4.95
2022-08-29T10:59:01.461Z,5.82
2022-08-29T11:01:49.695Z,5.53
2022-08-29T11:04:45.501Z,5.00
2022-08-29T11:07:21.710Z,5.50
2022-08-29T11:09:49.366Z,5.05
2022-08-29T11:12:45.610Z,4.57
2022-08-29T11:15:26.998Z,4.53
2022-08-29T11:18:22.443Z,4.88
2022-08-29T11:20:56.621Z,4.93
2022-08-29T11:23:32.465Z,4.38
2022-08-29T11:26:07.607Z,4.38
2022-08-29T11:28:53.238Z,5.30
2022-08-29T11:31:35.488Z,5.22
2022-08-29T11:34:27.699Z,4.60
2022-08-29T11:37:27.762Z,6.22
2022-08-29T11:40:09.083Z,5.45
2022-08-29T11:42:56.235Z,4.95
2022-08-29T11:45:35.592Z,4.95
2022-08-29T11:48:10.487Z,4.78
2022-08-29T11:50:39.241Z,5.03
2022-08-29T11:53:22.621Z,4.83
2022-08-29T11:56:28.763Z,4.95
2022-08-29T11:58:58.039Z,4.70
2022-08-29T12:01:24.880Z,4.53
2022-08-29T12:04:02.319Z,5.00
2022-08-29T12:06:29.159Z,5.00
2022-08-29T12:09:04.914Z,4.93
2022-08-29T12:12:04.572Z,5.30
2022-08-29T12:14:38.021Z,4.88
2022-08-29T12:17:16.341Z,4.38
2022-08-29T12:19:54.346Z,4.30
2022-08-29T12:22:52.691Z,4.85
2022-08-29T12:25:28.650Z,4.82
2022-08-29T12:28:05.892Z,4.65
2022-08-29T12:30:40.177Z,4.95
2022-08-29T12:33:11.859Z,4.85
2022-08-29T12:35:44.963Z,4.68
2022-08-29T12:38:31.280Z,5.03
2022-08-29T12:41:32.924Z,4.40
2022-08-29T12:44:04.236Z,4.25
2022-08-29T12:46:36.211Z,4.75
2022-08-29T12:49:37.783Z,4.30
2022-08-29T12:52:08.121Z,4.60
2022-08-29T12:54:45.949Z,4.50
2022-08-29T12:57:23.716Z,4.07
2022-08-29T12:59:53.167Z,4.57
2022-08-29T13:02:32.721Z,4.18
2022-08-29T13:07:28.308Z,3.75
2022-08-29T13:10:01.150Z,4.00
2022-08-29T13:12:29.418Z,4.20
2022-08-29T13:15:03.380Z,4.53
2022-08-29T13:17:40.267Z,4.20
2022-08-29T13:20:38.257Z,4.50
2022-08-29T13:23:19.629Z,4.10
2022-08-29T13:26:03.178Z,4.32
2022-08-29T13:28:43.886Z,4.57
2022-08-29T13:31:17.118Z,4.03
2022-08-29T13:33:50.202Z,4.03
2022-08-29T13:36:32.370Z,4.45
2022-08-29T13:39:17.434Z,4.13
2022-08-29T13:41:44.297Z,4.75
2022-08-29T13:44:19.829Z,4.45
2022-08-29T13:46:48.400Z,4.30
2022-08-29T13:49:27.576Z,4.07
2022-08-29T13:51:54.811Z,4.90
2022-08-29T13:54:22.061Z,4.00
2022-08-29T13:56:56.195Z,4.30
2022-08-29T13:59:26.351Z,4.07
2022-08-29T14:02:12.941Z,3.88
2022-08-29T14:04:41.682Z,4.13
2022-08-29T14:07:11.321Z,4.95
2022-08-29T14:09:41.923Z,4.20
2022-08-29T14:12:09.860Z,4.13
2022-08-29T14:14:36.959Z,4.25
2022-08-29T14:17:04.623Z,5.25
2022-08-29T14:19:31.765Z,4.35
2022-08-29T14:22:02.182Z,4.20
2022-08-29T14:24:31.296Z,5.65
2022-08-29T14:27:02.036Z,5.40
2022-08-29T14:29:31.230Z,4.50
2022-08-29T14:31:58.913Z,4.17
2022-08-29T14:34:32.140Z,4.13
2022-08-29T14:36:59.363Z,4.43
2022-08-29T14:39:26.600Z,4.13
2022-08-29T14:41:54.512Z,4.00
2022-08-29T14:44:22.278Z,4.35
2022-08-29T14:46:49.766Z,4.07
2022-08-29T14:49:16.964Z,4.85
2022-08-29T14:51:44.560Z,4.15
2022-08-29T14:54:12.654Z,4.00
2022-08-29T14:56:48.802Z,3.90
2022-08-29T14:59:17.465Z,4.25
2022-08-29T15:01:44.938Z,3.80
2022-08-29T15:04:13.010Z,4.28
2022-08-29T15:06:41.124Z,3.90
2022-08-29T15:09:08.218Z,4.25
2022-08-29T15:11:35.347Z,4.10
2022-08-29T15:14:04.643Z,4.10
2022-08-29T15:16:32.650Z,4.10
2022-08-29T15:19:45.134Z,4.15
2022-08-29T15:21:46.705Z,4.60
2022-08-29T15:24:13.758Z,4.03
2022-08-29T15:26:41.016Z,4.15
2022-08-29T15:29:09.081Z,4.40
2022-08-29T15:31:36.088Z,4.32
2022-08-29T15:34:03.100Z,4.20
2022-08-29T15:36:30.526Z,3.97
2022-08-29T15:38:58.482Z,3.80
2022-08-29T15:41:25.481Z,4.13
2022-08-29T15:43:52.439Z,4.20
2022-08-29T15:46:19.565Z,4.00
2022-08-29T15:48:48.587Z,4.70
2022-08-29T15:51:15.537Z,4.28
2022-08-29T15:53:42.529Z,4.25
2022-08-29T15:56:09.862Z,4.35
2022-08-29T15:58:37.021Z,4.20
2022-08-29T16:01:05.579Z,4.43
2022-08-29T16:03:32.843Z,4.38
2022-08-29T16:06:00.189Z,4.50
2022-08-29T16:08:29.670Z,4.20
2022-08-29T16:10:57.104Z,4.03
2022-08-29T16:13:24.149Z,3.33
2022-08-29T16:15:51.160Z,4.35
2022-08-29T16:18:18.149Z,4.20
2022-08-29T16:20:45.172Z,4.18
2022-08-29T16:23:12.201Z,3.72
2022-08-29T16:25:39.721Z,4.35
2022-08-29T16:28:08.994Z,4.25
2022-08-29T16:30:36.223Z,4.53
2022-08-29T16:33:11.635Z,4.27
2022-08-29T16:35:38.617Z,4.05
2022-08-29T16:38:05.659Z,4.32
2022-08-29T16:40:32.809Z,4.05
2022-08-29T16:43:01.724Z,4.22
2022-08-29T16:45:29.205Z,4.20
2022-08-29T16:47:57.712Z,4.35
2022-08-29T16:50:26.531Z,4.32
2022-08-29T16:52:54.098Z,3.83
2022-08-29T16:55:21.607Z,3.25
2022-08-29T16:58:07.121Z,3.67
2022-08-29T17:00:35.285Z,4.25
2022-08-29T17:03:02.341Z,4.15
2022-08-29T17:05:29.451Z,4.03
2022-08-29T17:07:56.330Z,4.00
2022-08-29T17:10:23.289Z,3.60
2022-08-29T17:12:50.243Z,3.80
2022-08-29T17:15:17.198Z,3.97
2022-08-29T17:17:44.238Z,4.10
2022-08-29T17:20:11.948Z,4.40
2022-08-29T17:22:39.461Z,3.83
2022-08-29T17:25:07.083Z,3.67
2022-08-29T17:27:34.106Z,3.90
2022-08-29T17:30:01.122Z,3.88
2022-08-29T17:32:28.482Z,4.22
2022-08-29T17:34:55.454Z,3.97
2022-08-29T17:37:22.433Z,3.75
2022-08-29T17:39:49.452Z,3.75
2022-08-29T17:42:16.698Z,3.50
2022-08-29T17:44:45.833Z,4.07
2022-08-29T17:47:13.049Z,3.55
2022-08-29T17:49:40.011Z,3.90
2022-08-29T17:52:06.993Z,3.75
2022-08-29T17:54:34.191Z,4.30
2022-08-29T17:57:02.161Z,3.80
2022-08-29T17:59:34.522Z,3.95
2022-08-29T18:02:01.758Z,3.80
2022-08-29T18:04:29.245Z,3.80
2022-08-29T18:06:56.758Z,4.28
2022-08-29T18:09:24.921Z,3.65
2022-08-29T18:11:53.921Z,3.67
2022-08-29T18:14:23.795Z,3.67
2022-08-29T18:16:52.572Z,3.78
2022-08-29T18:19:22.122Z,3.53
2022-08-29T18:21:50.442Z,4.00
2022-08-29T18:24:17.763Z,4.55
2022-08-29T18:26:46.323Z,3.80
2022-08-29T18:29:14.151Z,3.58
2022-08-29T18:31:41.917Z,3.55
2022-08-29T18:34:11.160Z,3.78
2022-08-29T18:36:42.333Z,4.70
2022-08-29T18:39:10.820Z,4.55
2022-08-29T18:41:37.877Z,4.00
2022-08-29T18:44:05.101Z,3.97
2022-08-29T18:46:33.394Z,3.72
2022-08-29T18:49:00.783Z,3.97
2022-08-29T18:51:28.311Z,3.70
2022-08-29T18:53:55.695Z,3.85
2022-08-29T18:56:22.691Z,3.80
2022-08-29T18:58:54.619Z,3.35
2022-08-29T19:01:28.578Z,3.67
2022-08-29T19:03:57.811Z,3.88
2022-08-29T19:06:27.458Z,3.83
2022-08-29T19:08:56.505Z,3.58
2022-08-29T19:11:24.105Z,3.60
2022-08-29T19:13:52.517Z,4.10
2022-08-29T19:16:21.434Z,3.72
2022-08-29T19:18:49.082Z,3.95
2022-08-29T19:21:16.132Z,4.00
2022-08-29T19:23:47.231Z,4.22
2022-08-29T19:26:23.413Z,3.70
2022-08-29T19:28:53.037Z,4.03
2022-08-29T19:31:24.120Z,3.55
2022-08-29T19:33:51.240Z,3.95
2022-08-29T19:36:18.263Z,3.45
2022-08-29T19:38:45.385Z,3.63
2022-08-29T19:41:12.801Z,3.63
2022-08-29T19:43:41.060Z,3.72
2022-08-29T19:46:14.532Z,3.78
2022-08-29T19:48:43.840Z,3.72
2022-08-29T19:51:14.114Z,3.75
2022-08-29T19:53:41.861Z,3.65
2022-08-29T19:56:10.172Z,3.70
2022-08-29T19:58:38.224Z,4.43
2022-08-29T20:01:07.657Z,4.05
2022-08-29T20:03:38.047Z,4.20
2022-08-29T20:06:06.963Z,4.15
2022-08-29T20:08:41.838Z,4.53
2022-08-29T20:11:14.067Z,4.57
2022-08-29T20:13:47.550Z,4.05
2022-08-29T20:16:20.238Z,5.30
2022-08-29T20:18:50.136Z,6.18
2022-08-29T20:21:19.247Z,5.47
2022-08-29T20:23:49.476Z,5.03
2022-08-29T20:26:19.600Z,5.03
2022-08-29T20:28:47.475Z,4.78
2022-08-29T20:31:14.498Z,5.32
2022-08-29T20:33:44.893Z,5.38
2022-08-29T20:36:30.844Z,6.20
2022-08-29T20:38:58.042Z,5.70
2022-08-29T20:41:25.048Z,6.35
2022-08-29T20:43:52.051Z,6.78
2022-08-29T20:46:19.076Z,7.85
2022-08-29T20:48:46.319Z,7.30
2022-08-29T20:51:13.590Z,6.28
2022-08-29T20:53:40.796Z,5.55
2022-08-29T20:56:08.674Z,4.88
2022-08-29T20:58:36.164Z,4.93
2022-08-29T21:01:03.821Z,4.90
2022-08-29T21:03:49.709Z,5.03
2022-08-29T21:06:20.454Z,4.22
2022-08-29T21:08:47.819Z,4.32
2022-08-29T21:11:16.326Z,4.18
2022-08-29T21:13:43.702Z,3.67
2022-08-29T21:16:11.919Z,5.35
2022-08-29T21:18:39.541Z,4.97
2022-08-29T21:21:06.695Z,4.75
2022-08-29T21:23:34.415Z,4.60
2022-08-29T21:26:02.321Z,4.72
2022-08-29T21:28:32.312Z,4.15
2022-08-29T21:31:10.902Z,3.97
2022-08-29T21:33:40.550Z,4.13
2022-08-29T21:36:12.966Z,4.60
2022-08-29T21:38:40.538Z,4.65
2022-08-29T21:41:12.344Z,4.57
2022-08-29T21:43:40.275Z,4.38
2022-08-29T21:46:17.753Z,4.32
2022-08-29T21:48:46.182Z,4.30
2022-08-29T21:51:14.206Z,4.50
2022-08-29T21:53:41.684Z,4.65
2022-08-29T21:56:08.927Z,4.55
2022-08-29T21:58:35.921Z,4.45
2022-08-29T22:01:03.353Z,4.22
2022-08-29T22:03:30.697Z,4.70
2022-08-29T22:05:57.738Z,3.63
2022-08-29T22:08:25.320Z,4.35
2022-08-29T22:10:52.370Z,3.83
2022-08-29T22:13:19.339Z,3.63
2022-08-29T22:16:05.000Z,3.85
2022-08-29T22:18:32.125Z,4.82
2022-08-29T22:21:00.603Z,4.60
2022-08-29T22:23:28.744Z,4.38
2022-08-29T22:25:56.578Z,4.40
2022-08-29T22:28:23.731Z,3.95
2022-08-29T22:30:50.799Z,4.22
2022-08-29T22:33:18.045Z,3.97
2022-08-29T22:35:45.126Z,4.22
2022-08-29T22:38:12.091Z,4.10
2022-08-29T22:40:40.474Z,5.05
2022-08-29T22:43:07.514Z,4.40
2022-08-29T22:45:34.594Z,4.50
2022-08-29T22:48:01.647Z,4.07
2022-08-29T22:50:28.771Z,3.90
2022-08-29T22:52:58.087Z,4.63
2022-08-29T22:57:52.173Z,4.15
2022-08-29T23:00:22.811Z,3.72
2022-08-29T23:02:50.817Z,4.53
2022-08-29T23:05:19.969Z,3.95
2022-08-29T23:07:47.095Z,4.00
2022-08-29T23:10:14.898Z,4.50
2022-08-29T23:12:42.246Z,3.75
2022-08-29T23:15:13.252Z,4.47
2022-08-29T23:17:40.863Z,4.05
2022-08-29T23:20:11.586Z,5.10
2022-08-29T23:22:39.469Z,4.40
2022-08-29T23:25:11.963Z,4.13
2022-08-29T23:27:39.143Z,4.28
2022-08-29T23:30:09.625Z,4.03
2022-08-29T23:32:36.883Z,3.90
2022-08-29T23:35:05.193Z,4.40
2022-08-29T23:37:32.163Z,4.30
2022-08-29T23:40:00.066Z,3.83
2022-08-29T23:42:27.559Z,5.57
2022-08-29T23:44:54.606Z,11.95
2022-08-29T23:47:21.589Z,15.27
2022-08-29T23:49:48.631Z,10.57
2022-08-29T23:52:15.614Z,8.73
2022-08-29T23:54:42.982Z,6.03
2022-08-29T23:57:10.018Z,5.60
2022-08-29T23:59:55.379Z,4.70
